• Join FlightAware (Why Join?)
  • Login
  • US Flag 
06:33PM EDT


 

Airport Tracker/Info


-or-


 

Live Flight TrackerFlight Track Log ✈ SWA1035 ✈ 07-May-2013 ✈ KMHT - KTPA

Flight Track Log - Related Links

Times and Time Zones

All times are in EDT time to prevent confusion due to time zone crossing. See the SWA1035 flight status page for this flight to view local times or setup timezone preferences in your user account.

Time Position Orientation Groundspeed Altitude Reporting Facility
EDT Latitude Longitude Course Direction KTS MPH feet Rate Location/Type
07:05AM 42.9500 -71.4167 26° Northeast 164 189 1,300  Level KA90
07:06AM 43.0000 -71.3833 26° Northeast 205 236 2,500 2,580 Climbing KA90
07:09AM 43.0481 -71.2069 70° East 239 275 9,600 3,600 Climbing Boston Center
07:10AM 43.0261 -71.1081 107° East 266 306 13,600 3,660 Climbing Boston Center
07:11AM 42.9567 -71.0500 149° Southeast 270 311 17,000 3,000 Climbing Boston Center
07:12AM 42.8872 -70.9950 150° Southeast 295 339 19,600 2,280 Climbing Boston Center
07:13AM 42.7953 -70.9689 168° South 322 371 21,600 1,980 Climbing Boston Center
07:14AM 42.6917 -71.0250 202° Southwest 336 387 23,600 2,280 Climbing Boston Center
07:15AM 42.5925 -71.1006 209° Southwest 388 447 26,200 2,580 Climbing Boston Center
07:16AM 42.5192 -71.2542 237° Southwest 398 458 28,800 2,100 Climbing Boston Center
07:17AM 42.4497 -71.3906 235° Southwest 429 494 30,500 1,860 Climbing Boston Center
07:18AM 42.3781 -71.5267 235° Southwest 443 510 32,600 2,100 Climbing Boston Center
07:19AM 42.3039 -71.6597 233° Southwest 455 524 34,700 1,920 Climbing Boston Center
07:20AM 42.2339 -71.7953 235° Southwest 455 524 36,500 1,620 Climbing Boston Center
07:21AM 42.1658 -71.9303 236° Southwest 455 524 38,000 1,500 Climbing Boston Center
07:22AM 42.0956 -72.0625 234° Southwest 450 518 39,600 960 Climbing Boston Center
07:23AM 42.0292 -72.1886 235° Southwest 437 503 40,000 180 Climbing Boston Center
07:24AM 41.9606 -72.3200 235° Southwest 437 503 40,000  Level Boston Center
07:25AM 41.8897 -72.4514 234° Southwest 437 503 40,000  Level Boston Center
07:26AM 41.8231 -72.5822 236° Southwest 432 497 40,000  Level Boston Center
07:27AM 41.7519 -72.7128 234° Southwest 432 497 40,000  Level Boston Center
07:28AM 41.6828 -72.8431 235° Southwest 432 497 40,000  Level Boston Center
07:29AM 41.6133 -72.9733 235° Southwest 432 497 40,000  Level Boston Center
07:30AM 41.5439 -73.0975 233° Southwest 432 497 40,000  Level Boston Center
07:31AM 41.4850 -73.2106 235° Southwest 427 491 40,000  Level Boston Center
07:32AM 41.3564 -73.4439 234° Southwest 415 478 40,000  Level New York Center
07:33AM 41.2867 -73.5736 234° Southwest 425 489 40,000  Level New York Center
07:34AM 41.2147 -73.7003 233° Southwest 430 495 40,000  Level New York Center
07:35AM 41.1408 -73.8239 232° Southwest 430 495 40,000  Level New York Center
07:36AM 41.0669 -73.9469 231° Southwest 430 495 40,000  Level New York Center
07:37AM 40.9947 -74.0728 233° Southwest 430 495 40,000  Level New York Center
07:38AM 40.9075 -74.2058 229° Southwest 435 501 40,000  Level New York Center
07:39AM 40.8331 -74.3283 231° Southwest 435 501 40,000  Level New York Center
07:40AM 40.7606 -74.4531 233° Southwest 435 501 40,000  Level New York Center
07:41AM 40.6858 -74.5750 231° Southwest 435 501 40,000  Level New York Center
07:42AM 40.6086 -74.7019 231° Southwest 435 501 40,000  Level New York Center
07:43AM 40.5319 -74.8150 228° Southwest 435 501 40,000  Level New York Center
07:44AM 40.4508 -74.9303 227° Southwest 430 495 40,000  Level New York Center
07:45AM 40.3717 -75.0425 227° Southwest 430 495 40,000  Level New York Center
07:46AM 40.2969 -75.1469 227° Southwest 429 494 40,000  Level New York Center
07:47AM 40.2200 -75.2589 228° Southwest 429 494 40,000  Level New York Center
07:48AM 40.1406 -75.3678 226° Southwest 424 488 40,000  Level New York Center
07:49AM 40.0592 -75.4792 226° Southwest 424 488 40,000  Level New York Center
07:50AM 39.9817 -75.5903 228° Southwest 424 488 40,000  Level New York Center
07:51AM 39.9000 -75.7036 227° Southwest 430 495 40,000  Level New York Center
07:53AM 39.7506 -75.9425 231° Southwest 415 478 40,000  Level Washington Center
07:54AM 39.6794 -76.0606 232° Southwest 415 478 40,000  Level Washington Center
07:55AM 39.5933 -76.1919 230° Southwest 429 494 40,000  Level Washington Center
07:56AM 39.5156 -76.3044 228° Southwest 434 499 40,000  Level Washington Center
07:57AM 39.4419 -76.4219 231° Southwest 423 487 40,000  Level Washington Center
07:58AM 39.3725 -76.5258 229° Southwest 423 487 40,000  Level Washington Center
07:59AM 39.2842 -76.6267 221° Southwest 428 493 40,000  Level Washington Center
08:00AM 39.1936 -76.7244 220° Southwest 428 493 40,000  Level Washington Center
08:01AM 39.1031 -76.8219 220° Southwest 428 493 40,000  Level Washington Center
08:02AM 39.0144 -76.9194 221° Southwest 434 499 40,000  Level Washington Center
08:03AM 38.9258 -77.0164 220° Southwest 434 499 40,000  Level Washington Center
08:04AM 38.8328 -77.1158 220° Southwest 434 499 40,000  Level Washington Center
08:05AM 38.7419 -77.2125 220° Southwest 434 499 40,000  Level Washington Center
08:06AM 38.6531 -77.3117 221° Southwest 434 499 40,000  Level Washington Center
08:07AM 38.5619 -77.4078 220° Southwest 439 505 40,000  Level Washington Center
08:08AM 38.4686 -77.5064 220° Southwest 439 505 40,000  Level Washington Center
08:09AM 38.3733 -77.5939 216° Southwest 439 505 40,000  Level Washington Center
08:10AM 38.2781 -77.6786 215° Southwest 434 499 40,000  Level Washington Center
08:11AM 38.1786 -77.7631 214° Southwest 434 499 40,000  Level Washington Center
08:12AM 38.0811 -77.8472 214° Southwest 434 499 40,000  Level Washington Center
08:13AM 37.9836 -77.9286 213° Southwest 434 499 40,000  Level Washington Center
08:14AM 37.8819 -78.0122 213° Southwest 434 499 40,000  Level Washington Center
08:15AM 37.7842 -78.0986 215° Southwest 434 499 40,000  Level Washington Center
08:16AM 37.6864 -78.1819 214° Southwest 434 499 40,000  Level Washington Center
08:17AM 37.5844 -78.2675 214° Southwest 434 499 40,000  Level Washington Center
08:18AM 37.4825 -78.3503 213° Southwest 434 499 40,000  Level Washington Center
08:19AM 37.3825 -78.4331 213° Southwest 434 499 40,000  Level Washington Center
08:20AM 37.2717 -78.5281 214° Southwest 441 507 40,000  Level Washington Center
08:21AM 37.1694 -78.6100 213° Southwest 441 507 40,000  Level Washington Center
08:22AM 37.0694 -78.6922 213° Southwest 441 507 40,000  Level Washington Center
08:23AM 36.9692 -78.7711 212° Southwest 441 507 40,000  Level Washington Center
08:24AM 36.8797 -78.8481 215° Southwest 441 507 40,000  Level Washington Center
08:25AM 36.7794 -78.9294 213° Southwest 441 507 40,000  Level Washington Center
08:26AM 36.6789 -79.0106 213° Southwest 441 507 40,000  Level Washington Center
08:27AM 36.5700 -79.0964 212° Southwest 435 501 40,000  Level Washington Center
08:28AM 36.4722 -79.1642 209° Southwest 435 501 40,000  Level Washington Center
08:29AM 36.3650 -79.2522 213° Southwest 435 501 40,000  Level Washington Center
08:30AM 36.2625 -79.3297 211° Southwest 440 506 40,000  Level Washington Center
08:31AM 36.1600 -79.4047 211° Southwest 440 506 40,000  Level Washington Center
08:33AM 35.9614 -79.5417 209° Southwest 434 499 40,000  Level Atlanta Center
08:34AM 35.8681 -79.6186 214° Southwest 434 499 40,000  Level Atlanta Center
08:35AM 35.7539 -79.6911 207° Southwest 434 499 40,000  Level Atlanta Center
08:36AM 35.6425 -79.7842 214° Southwest 434 499 40,000  Level Atlanta Center
08:37AM 35.5364 -79.8583 210° Southwest 440 506 40,000  Level Atlanta Center
08:38AM 35.4300 -79.9175 204° Southwest 433 498 40,000  Level Atlanta Center
08:39AM 35.3317 -79.9706 204° Southwest 428 493 40,000  Level Atlanta Center
08:40AM 35.2211 -80.0344 205° Southwest 438 504 40,000  Level Atlanta Center
08:41AM 35.1144 -80.0931 204° Southwest 432 497 40,000  Level Atlanta Center
08:43AM 34.9547 -80.1850 205° Southwest 427 491 40,000  Level Jacksonville Center
08:44AM 34.8456 -80.2467 205° Southwest 427 491 40,000  Level Jacksonville Center
08:45AM 34.7300 -80.3133 205° Southwest 421 484 40,000  Level Jacksonville Center
08:46AM 34.6228 -80.3747 205° Southwest 421 484 40,000  Level Jacksonville Center
08:47AM 34.5133 -80.4333 204° Southwest 426 490 40,000  Level Jacksonville Center
08:48AM 34.4039 -80.4917 204° Southwest 426 490 40,000  Level Jacksonville Center
08:49AM 34.2989 -80.5575 207° Southwest 426 490 40,000  Level Jacksonville Center
08:50AM 34.1914 -80.6131 203° Southwest 426 490 40,000  Level Jacksonville Center
08:51AM 34.0839 -80.6736 205° Southwest 431 496 40,000  Level Jacksonville Center
08:52AM 33.9744 -80.7339 205° Southwest 431 496 40,000  Level Jacksonville Center
08:53AM 33.8669 -80.7917 204° Southwest 431 496 40,000  Level Jacksonville Center
08:54AM 33.7675 -80.8439 204° Southwest 436 502 40,000  Level Jacksonville Center
08:55AM 33.6600 -80.9039 205° Southwest 436 502 40,000  Level Jacksonville Center
08:56AM 33.5544 -80.9611 204° Southwest 436 502 40,000  Level Jacksonville Center
08:57AM 33.4489 -81.0181 204° Southwest 436 502 40,000  Level Jacksonville Center
08:58AM 33.3414 -81.0750 204° Southwest 431 496 40,000  Level Jacksonville Center
08:59AM 33.2356 -81.1319 204° Southwest 431 496 40,000  Level Jacksonville Center
09:00AM 33.1300 -81.1908 205° Southwest 421 484 40,000  Level Jacksonville Center
09:01AM 33.0242 -81.2450 203° Southwest 421 484 40,000  Level Jacksonville Center
09:02AM 32.9144 -81.3064 205° Southwest 426 490 40,000  Level Jacksonville Center
09:03AM 32.8067 -81.3628 204° Southwest 426 490 40,000  Level Jacksonville Center
09:04AM 32.7008 -81.4189 204° Southwest 421 484 40,000  Level Jacksonville Center
09:05AM 32.5950 -81.4747 204° Southwest 421 484 40,000  Level Jacksonville Center
09:06AM 32.4808 -81.5381 205° Southwest 421 484 40,000  Level Jacksonville Center
09:07AM 32.3853 -81.5861 203° Southwest 413 475 40,000  Level Jacksonville Center
09:08AM 32.2689 -81.6469 204° Southwest 413 475 40,000  Level Jacksonville Center
09:09AM 32.1650 -81.7022 204° Southwest 413 475 40,000  Level Jacksonville Center
09:10AM 32.0633 -81.7575 205° Southwest 408 470 40,000  Level Jacksonville Center
09:11AM 31.9697 -81.8078 204° Southwest 413 475 40,000  Level Jacksonville Center
09:12AM 31.8533 -81.8653 203° Southwest 418 481 40,000  Level Jacksonville Center
09:13AM 31.7514 -81.9178 204° Southwest 413 475 40,000  Level Jacksonville Center
09:14AM 31.6475 -81.9700 203° Southwest 413 475 40,000  Level Jacksonville Center
09:15AM 31.5436 -82.0272 205° Southwest 418 481 40,000  Level Jacksonville Center
09:16AM 31.4353 -82.0794 202° Southwest 420 483 40,000  Level Jacksonville Center
09:17AM 31.3164 -82.0972 187° South 425 489 40,000 -360 Level Jacksonville Center
09:18AM 31.1953 -82.1178 188° South 432 497 39,300 -900 Descending Jacksonville Center
09:19AM 31.0806 -82.1358 188° South 432 497 38,300 -660 Descending Jacksonville Center
09:20AM 30.9639 -82.1536 187° South 426 490 38,000 -180 Descending Jacksonville Center
09:21AM 30.8469 -82.1692 187° South 426 490 38,000  Level Jacksonville Center
09:22AM 30.7322 -82.1869 188° South 426 490 38,000  Level Jacksonville Center
09:23AM 30.6175 -82.2047 188° South 426 490 38,000  Level Jacksonville Center
09:24AM 30.5006 -82.2175 185° South 426 490 38,000 -180 Level Jacksonville Center
09:25AM 30.3881 -82.2353 188° South 426 490 37,700 -660 Descending Jacksonville Center
09:26AM 30.2753 -82.2528 188° South 421 484 36,700 -960 Descending Jacksonville Center
09:27AM 30.1606 -82.2703 188° South 421 484 35,800 -960 Descending Jacksonville Center
09:28AM 30.0481 -82.2878 188° South 410 472 34,800 -900 Descending Jacksonville Center
09:29AM 29.9458 -82.3078 190° South 410 472 34,000 -900 Descending Jacksonville Center
09:30AM 29.8311 -82.3228 186° South 410 472 33,000 -2,160 Descending Jacksonville Center
09:31AM 29.7036 -82.3403 187° South 410 472 29,700 -2,820 Descending Jacksonville Center
09:32AM 29.6097 -82.3550 188° South 416 479 27,400 -1,740 Descending Jacksonville Center
09:33AM 29.4825 -82.3486 177° South 421 484 26,300 -1,080 Descending Jacksonville Center
09:34AM 29.3656 -82.3325 173° South 421 484 25,300 -1,380 Descending Jacksonville Center
09:35AM 29.2486 -82.3189 174° South 421 484 23,600 -2,100 Descending Jacksonville Center
09:36AM 29.1400 -82.3053 174° South 416 479 21,100 -2,460 Descending Jacksonville Center
09:37AM 29.0333 -82.2942 175° South 403 464 18,700 -2,460 Descending Jacksonville Center
09:38AM 28.9247 -82.2806 174° South 397 457 16,200 -1,740 Descending Jacksonville Center
09:39AM 28.8289 -82.2692 174° South 378 435 15,300 -1,080 Descending Jacksonville Center
09:41AM 28.6167 -82.2500 175° South 323 372 12,900 -1,080 Descending Tampa TRACON
09:42AM 28.5333 -82.2500 180° South 311 358 12,000 -780 Descending Tampa TRACON
09:43AM 28.4500 -82.2500 180° South 302 348 11,400 -1,200 Descending Tampa TRACON
09:44AM 28.3833 -82.2833 204° Southwest 291 335 9,700 -1,860 Descending Tampa TRACON
09:45AM 28.3000 -82.3167 199° South 275 316 7,500 -1,800 Descending Tampa TRACON
09:46AM 28.2833 -82.4000 257° West 246 283 6,000 -1,620 Descending Tampa TRACON
09:47AM 28.2667 -82.4833 257° West 242 278 4,200 -1,320 Descending Tampa TRACON
09:48AM 28.2167 -82.5167 210° Southwest 219 252 3,400 -900 Descending Tampa TRACON
09:49AM 28.1667 -82.5167 180° South 206 237 2,600 -780 Descending Tampa TRACON
09:50AM 28.1167 -82.5167 180° South 184 212 2,000 -480 Descending Tampa TRACON
09:51AM 28.0667 -82.5333 196° South 159 183 1,700 -480 Descending Tampa TRACON
09:52AM 28.0333 -82.5333 180° South 129 148 1,100 -660 Descending Tampa TRACON